createdAt,value
2022-08-05T00:00:06.086Z,1.92
2022-08-05T00:00:18.840Z,2.10
2022-08-05T00:00:30.875Z,2.10
2022-08-05T00:00:47.281Z,2.08
2022-08-05T00:01:20.585Z,2.15
2022-08-05T00:01:36.549Z,2.17
2022-08-05T00:02:07.839Z,2.00
2022-08-05T00:02:24.029Z,1.88
2022-08-05T00:02:37.828Z,2.00
2022-08-05T00:02:56.081Z,2.10
2022-08-05T00:03:08.068Z,2.30
2022-08-05T00:03:27.851Z,2.10
2022-08-05T00:03:44.526Z,2.03
2022-08-05T00:03:57.662Z,2.00
2022-08-05T00:04:09.793Z,2.00
2022-08-05T00:04:25.476Z,2.00
2022-08-05T00:04:37.510Z,1.90
2022-08-05T00:04:55.235Z,2.00
2022-08-05T00:05:08.253Z,2.03
2022-08-05T00:06:04.935Z,2.10
2022-08-05T00:06:29.301Z,2.15
2022-08-05T00:06:45.164Z,2.10
2022-08-05T00:06:59.851Z,1.95
2022-08-05T00:07:26.763Z,2.10
2022-08-05T00:07:59.644Z,2.17
2022-08-05T00:08:34.182Z,2.00
2022-08-05T00:08:45.112Z,2.00
2022-08-05T00:09:00.361Z,2.05
2022-08-05T00:09:15.689Z,2.00
2022-08-05T00:09:31.728Z,2.00
2022-08-05T00:09:44.069Z,2.13
2022-08-05T00:09:56.022Z,2.13
2022-08-05T00:10:08.416Z,2.10
2022-08-05T00:10:22.919Z,2.20
2022-08-05T00:10:39.418Z,2.22
2022-08-05T00:10:51.371Z,2.13
2022-08-05T00:11:20.308Z,2.13
2022-08-05T00:11:48.751Z,2.10
2022-08-05T00:12:01.668Z,2.50
2022-08-05T00:12:14.176Z,2.47
2022-08-05T00:12:26.272Z,2.33
2022-08-05T00:12:55.623Z,2.30
2022-08-05T00:13:08.858Z,2.10
2022-08-05T00:13:39.273Z,2.20
2022-08-05T00:13:52.920Z,2.30
2022-08-05T00:14:12.796Z,2.22
2022-08-05T00:14:31.397Z,2.10
2022-08-05T00:14:43.558Z,2.40
2022-08-05T00:14:55.808Z,2.38
2022-08-05T00:15:56.202Z,2.30
2022-08-05T00:15:56.412Z,2.28
2022-08-05T00:16:13.897Z,2.33
2022-08-05T00:16:35.272Z,2.50
2022-08-05T00:16:53.240Z,2.30
2022-08-05T00:17:05.900Z,2.20
2022-08-05T00:17:31.875Z,2.30
2022-08-05T00:17:44.084Z,2.20
2022-08-05T00:17:59.965Z,2.20
2022-08-05T00:18:21.331Z,2.30
2022-08-05T00:18:33.855Z,2.30
2022-08-05T00:18:48.146Z,2.30
2022-08-05T00:19:00.709Z,2.28
2022-08-05T00:19:12.894Z,2.17
2022-08-05T00:19:33.537Z,2.08
2022-08-05T00:20:02.352Z,2.17
2022-08-05T00:20:14.812Z,2.10
2022-08-05T00:20:32.406Z,2.28
2022-08-05T00:20:44.607Z,2.38
2022-08-05T00:21:00.936Z,2.20
2022-08-05T00:21:14.640Z,2.17
2022-08-05T00:21:26.684Z,2.20
2022-08-05T00:21:42.808Z,2.20
2022-08-05T00:21:54.773Z,2.15
2022-08-05T00:22:06.695Z,2.10
2022-08-05T00:22:23.132Z,2.00
2022-08-05T00:22:36.502Z,2.17
2022-08-05T00:22:57.369Z,2.20
2022-08-05T00:23:13.287Z,2.05
2022-08-05T00:23:44.693Z,2.30
2022-08-05T00:24:09.940Z,2.10
2022-08-05T00:24:24.528Z,1.90
2022-08-05T00:24:36.969Z,2.00
2022-08-05T00:24:55.082Z,2.00
2022-08-05T00:25:08.398Z,2.10
2022-08-05T00:25:24.672Z,2.35
2022-08-05T00:25:45.344Z,2.45
2022-08-05T00:25:58.270Z,2.40
2022-08-05T00:26:11.123Z,2.22
2022-08-05T00:26:23.177Z,2.30
2022-08-05T00:26:35.108Z,2.28
2022-08-05T00:26:51.785Z,2.20
2022-08-05T00:27:10.452Z,2.00
2022-08-05T00:27:36.171Z,2.10
2022-08-05T00:27:48.601Z,2.20
2022-08-05T00:28:02.887Z,2.25
2022-08-05T00:28:15.645Z,2.13
2022-08-05T00:28:33.507Z,2.00
2022-08-05T00:28:46.183Z,2.00
2022-08-05T00:28:58.155Z,2.10
2022-08-05T00:29:10.133Z,2.00
2022-08-05T00:29:22.674Z,2.00
2022-08-05T00:29:38.083Z,2.05
2022-08-05T00:29:50.444Z,2.17
2022-08-05T00:30:03.297Z,2.22
2022-08-05T00:30:15.458Z,2.15
2022-08-05T00:30:29.315Z,2.17
2022-08-05T00:30:44.380Z,2.10
2022-08-05T00:31:05.122Z,2.25
2022-08-05T00:31:53.349Z,2.15
2022-08-05T00:32:10.150Z,2.05
2022-08-05T00:32:25.861Z,1.98
2022-08-05T00:32:37.898Z,2.10
2022-08-05T00:32:52.442Z,2.00
2022-08-05T00:33:05.691Z,1.90
2022-08-05T00:34:55.374Z,1.90
2022-08-05T00:34:56.350Z,1.98
2022-08-05T00:34:56.408Z,1.80
2022-08-05T00:35:07.525Z,2.03
2022-08-05T00:35:20.289Z,2.00
2022-08-05T00:35:33.222Z,2.00
2022-08-05T00:35:47.985Z,2.00
2022-08-05T00:37:11.169Z,1.90
2022-08-05T00:37:12.405Z,2.03
2022-08-05T00:37:21.220Z,1.80
2022-08-05T00:37:50.682Z,1.85
2022-08-05T00:38:09.471Z,1.98
2022-08-05T00:38:28.643Z,1.90
2022-08-05T00:38:40.943Z,2.00
2022-08-05T00:38:53.035Z,2.10
2022-08-05T00:39:05.217Z,2.10
2022-08-05T00:39:25.571Z,2.00
2022-08-05T00:39:44.212Z,2.05
2022-08-05T00:40:10.009Z,1.90
2022-08-05T00:40:28.374Z,1.90
2022-08-05T00:40:53.440Z,2.00
2022-08-05T00:41:07.453Z,1.90
2022-08-05T00:41:51.578Z,2.10
2022-08-05T00:42:04.018Z,2.17
2022-08-05T00:42:31.692Z,2.20
2022-08-05T00:42:44.532Z,2.00
2022-08-05T00:43:02.679Z,2.08
2022-08-05T00:43:20.298Z,2.03
2022-08-05T00:43:47.371Z,2.10
2022-08-05T00:44:02.135Z,2.10
2022-08-05T00:44:14.189Z,2.20
2022-08-05T00:44:31.018Z,2.13
2022-08-05T00:44:43.568Z,1.92
2022-08-05T00:44:55.724Z,1.98
2022-08-05T00:45:11.528Z,2.10
2022-08-05T00:45:38.242Z,2.10
2022-08-05T00:45:51.384Z,1.80
2022-08-05T00:46:04.802Z,2.10
2022-08-05T00:46:16.783Z,2.17
2022-08-05T00:46:42.535Z,2.20
2022-08-05T00:47:03.636Z,1.92
2022-08-05T00:47:17.567Z,1.92
2022-08-05T00:47:31.713Z,2.00
2022-08-05T00:48:05.934Z,2.13
2022-08-05T00:48:31.271Z,2.10
2022-08-05T00:48:50.640Z,2.00
2022-08-05T00:49:03.738Z,1.98
2022-08-05T00:49:19.144Z,2.10
2022-08-05T00:49:32.824Z,2.20
2022-08-05T00:49:56.551Z,2.00
2022-08-05T00:50:10.867Z,2.05
2022-08-05T00:50:25.446Z,1.98
2022-08-05T00:50:41.261Z,1.90
2022-08-05T00:50:54.148Z,2.00
2022-08-05T00:51:08.785Z,2.00
2022-08-05T00:51:51.100Z,1.90
2022-08-05T00:51:53.959Z,2.15
2022-08-05T00:52:06.988Z,2.03
2022-08-05T00:52:28.233Z,1.92
2022-08-05T00:52:40.780Z,2.10
2022-08-05T00:52:55.049Z,2.20
2022-08-05T00:53:09.860Z,2.00
2022-08-05T00:54:00.943Z,2.30
2022-08-05T00:54:14.185Z,2.05
2022-08-05T00:54:30.082Z,1.90
2022-08-05T00:54:42.077Z,2.03
2022-08-05T00:54:56.152Z,2.25
2022-08-05T00:55:08.368Z,2.38
2022-08-05T00:55:20.809Z,2.33
2022-08-05T00:55:41.982Z,2.30
2022-08-05T00:55:55.054Z,2.33
2022-08-05T00:56:08.204Z,2.20
2022-08-05T00:56:22.749Z,2.22
2022-08-05T00:56:35.033Z,2.20
2022-08-05T00:56:51.365Z,2.00
2022-08-05T00:57:04.440Z,2.10
2022-08-05T00:57:16.807Z,2.10
2022-08-05T00:57:38.335Z,2.20
2022-08-05T00:58:05.182Z,2.00
2022-08-05T00:58:19.115Z,2.10
2022-08-05T00:58:31.376Z,2.30
2022-08-05T00:58:44.980Z,2.28
2022-08-05T00:58:57.124Z,2.00
2022-08-05T00:59:12.223Z,2.00
2022-08-05T00:59:24.163Z,2.30
2022-08-05T00:59:44.682Z,2.33
2022-08-05T00:59:57.516Z,2.50
2022-08-05T01:00:11.224Z,2.55
2022-08-05T01:00:25.984Z,2.30
2022-08-05T01:00:39.518Z,2.20
2022-08-05T01:00:51.659Z,2.10
2022-08-05T01:01:08.713Z,2.25
2022-08-05T01:01:24.777Z,2.30
2022-08-05T01:01:53.169Z,2.10
2022-08-05T01:02:05.331Z,2.00
2022-08-05T01:02:20.819Z,2.08
2022-08-05T01:02:36.354Z,2.10
2022-08-05T01:02:50.195Z,2.03
2022-08-05T01:03:02.210Z,2.15
2022-08-05T01:03:22.981Z,2.10
2022-08-05T01:03:35.316Z,2.00
2022-08-05T01:03:49.943Z,2.10
2022-08-05T01:04:03.182Z,2.10
2022-08-05T01:04:26.989Z,2.20
2022-08-05T01:04:42.279Z,2.08
2022-08-05T01:04:54.277Z,2.00
2022-08-05T01:05:10.154Z,2.00
2022-08-05T01:05:22.632Z,2.20
2022-08-05T01:05:35.300Z,2.15
2022-08-05T01:05:47.252Z,2.28
2022-08-05T01:05:59.215Z,2.20
2022-08-05T01:06:15.295Z,2.13
2022-08-05T01:06:32.618Z,2.20
2022-08-05T01:06:48.793Z,2.22
2022-08-05T01:07:01.008Z,2.20
2022-08-05T01:07:17.862Z,2.10
2022-08-05T01:07:31.650Z,2.10
2022-08-05T01:08:40.050Z,2.33
2022-08-05T01:08:40.620Z,2.08
2022-08-05T01:08:47.756Z,2.40
2022-08-05T01:09:00.523Z,2.10
2022-08-05T01:09:15.138Z,1.90
2022-08-05T01:09:31.840Z,2.00
2022-08-05T01:09:43.890Z,2.03
2022-08-05T01:09:56.594Z,2.20
2022-08-05T01:10:12.083Z,2.25
2022-08-05T01:10:35.316Z,2.08
2022-08-05T01:10:59.225Z,2.20
2022-08-05T01:11:22.629Z,2.42
2022-08-05T01:11:39.612Z,2.30
2022-08-05T01:11:55.693Z,2.40
2022-08-05T01:12:18.444Z,2.45
2022-08-05T01:12:31.096Z,2.10
2022-08-05T01:13:05.228Z,2.00
2022-08-05T01:13:22.427Z,2.65
2022-08-05T01:13:58.538Z,2.67
2022-08-05T01:14:28.085Z,2.42
2022-08-05T01:14:48.635Z,2.13
2022-08-05T01:15:35.480Z,2.53
2022-08-05T01:15:47.870Z,2.05
2022-08-05T01:16:04.927Z,2.20
2022-08-05T01:16:38.010Z,2.30
2022-08-05T01:16:59.910Z,2.20
2022-08-05T01:17:29.162Z,2.20
2022-08-05T01:17:53.616Z,2.13
2022-08-05T01:18:12.563Z,2.30
2022-08-05T01:18:34.081Z,2.40
2022-08-05T01:18:56.407Z,2.75
2022-08-05T01:19:46.166Z,2.47
2022-08-05T01:20:27.132Z,2.15
2022-08-05T01:21:22.835Z,2.30
2022-08-05T01:21:51.170Z,2.88
2022-08-05T01:22:18.866Z,2.22
2022-08-05T01:22:51.513Z,2.30
2022-08-05T01:23:14.399Z,2.42
2022-08-05T01:23:39.590Z,2.40
2022-08-05T01:24:05.362Z,2.20
2022-08-05T01:24:49.995Z,2.28
2022-08-05T01:25:40.681Z,2.50
2022-08-05T01:26:07.136Z,2.50
2022-08-05T01:26:33.948Z,2.30
2022-08-05T01:27:17.594Z,2.60
2022-08-05T01:28:05.966Z,2.22
2022-08-05T01:28:37.553Z,2.65
2022-08-05T01:28:57.965Z,2.65
2022-08-05T01:29:28.515Z,2.42
2022-08-05T01:29:47.028Z,2.80
2022-08-05T01:30:03.744Z,2.67
2022-08-05T01:30:18.874Z,2.60
2022-08-05T01:30:36.650Z,2.50
2022-08-05T01:31:04.867Z,2.67
2022-08-05T01:31:44.589Z,3.10
2022-08-05T01:32:02.121Z,2.55
2022-08-05T01:32:22.263Z,2.53
2022-08-05T01:32:38.984Z,2.50
2022-08-05T01:32:53.570Z,2.50
2022-08-05T01:33:08.619Z,2.40
2022-08-05T01:33:25.208Z,2.35
2022-08-05T01:33:54.253Z,2.38
2022-08-05T01:34:13.959Z,2.50
2022-08-05T01:34:31.219Z,2.60
2022-08-05T01:34:58.291Z,2.60
2022-08-05T01:35:51.030Z,2.80
2022-08-05T01:35:51.085Z,2.60
2022-08-05T01:36:12.896Z,2.50
2022-08-05T01:36:32.789Z,2.35
2022-08-05T01:36:49.165Z,2.30
2022-08-05T01:37:09.338Z,2.30
2022-08-05T01:37:44.290Z,2.40
2022-08-05T01:37:59.556Z,2.53
2022-08-05T01:38:24.600Z,2.60
2022-08-05T01:38:40.966Z,2.75
2022-08-05T01:38:54.594Z,2.72
2022-08-05T01:39:06.704Z,2.50
2022-08-05T01:39:45.617Z,2.47
2022-08-05T01:39:58.689Z,2.60
2022-08-05T01:40:17.848Z,2.80
2022-08-05T01:40:32.558Z,2.60
2022-08-05T01:40:46.602Z,2.40
2022-08-05T01:41:01.948Z,2.60
2022-08-05T01:41:17.280Z,2.70
2022-08-05T01:41:36.687Z,2.42
2022-08-05T01:41:51.082Z,2.45
2022-08-05T01:42:09.757Z,2.65
2022-08-05T01:42:23.947Z,2.72
2022-08-05T01:42:37.937Z,2.67
2022-08-05T01:42:54.673Z,2.38
2022-08-05T01:43:08.046Z,2.40
2022-08-05T01:43:35.722Z,2.72
2022-08-05T01:43:49.264Z,2.80
2022-08-05T01:44:02.849Z,2.58
2022-08-05T01:44:16.439Z,2.47
2022-08-05T01:44:35.333Z,2.50
2022-08-05T01:44:54.116Z,2.47
2022-08-05T01:45:08.134Z,2.50
2022-08-05T01:45:21.081Z,2.58
2022-08-05T01:45:34.697Z,2.50
2022-08-05T01:45:47.176Z,2.33
2022-08-05T01:46:16.450Z,2.45
2022-08-05T01:46:46.207Z,2.33
2022-08-05T01:47:00.934Z,2.50
2022-08-05T01:47:17.248Z,2.47
2022-08-05T01:47:39.216Z,2.47
2022-08-05T01:47:55.565Z,2.70
2022-08-05T01:48:10.490Z,2.47
2022-08-05T01:48:23.773Z,2.33
2022-08-05T01:48:39.034Z,2.40
2022-08-05T01:48:55.522Z,2.10
2022-08-05T01:49:22.642Z,2.20
2022-08-05T01:50:01.886Z,2.40
2022-08-05T01:50:15.121Z,2.80
2022-08-05T01:50:30.940Z,2.65
2022-08-05T01:50:50.963Z,2.60
2022-08-05T01:51:11.929Z,2.50
2022-08-05T01:51:29.289Z,2.53
2022-08-05T01:51:42.899Z,2.55
2022-08-05T01:52:17.321Z,2.50
2022-08-05T01:52:34.545Z,2.38
2022-08-05T01:52:49.849Z,2.60
2022-08-05T01:53:15.093Z,2.60
2022-08-05T01:53:56.988Z,2.30
2022-08-05T01:54:13.546Z,2.30
2022-08-05T01:54:46.074Z,2.40
2022-08-05T01:55:02.270Z,2.28
2022-08-05T01:55:20.007Z,2.83
2022-08-05T01:55:36.260Z,2.78
2022-08-05T01:55:50.533Z,2.63
2022-08-05T01:56:04.540Z,2.80
2022-08-05T01:58:09.564Z,2.50
2022-08-05T01:58:12.869Z,2.72
2022-08-05T01:58:14.681Z,2.75
2022-08-05T01:58:18.883Z,2.50
2022-08-05T01:58:44.927Z,2.50
2022-08-05T01:58:59.108Z,2.42
2022-08-05T01:59:15.409Z,2.60
2022-08-05T01:59:30.788Z,2.58
2022-08-05T01:59:47.080Z,2.40
2022-08-05T02:00:00.921Z,2.53
2022-08-05T02:00:14.069Z,2.58
2022-08-05T02:00:30.421Z,2.50
2022-08-05T02:00:50.949Z,2.80
2022-08-05T02:01:05.473Z,2.45
2022-08-05T02:01:24.684Z,2.40
2022-08-05T02:01:40.082Z,2.60
2022-08-05T02:01:54.818Z,2.60
2022-08-05T02:02:11.926Z,2.40
2022-08-05T02:02:30.816Z,2.42
2022-08-05T02:02:54.867Z,2.65
2022-08-05T02:03:24.417Z,2.63
2022-08-05T02:03:48.843Z,2.58
2022-08-05T02:04:04.267Z,2.53
2022-08-05T02:04:19.452Z,2.53
2022-08-05T02:04:36.539Z,2.70
2022-08-05T02:04:54.796Z,2.78
2022-08-05T02:05:11.701Z,2.70
2022-08-05T02:05:30.041Z,2.50
2022-08-05T02:05:48.273Z,2.50
2022-08-05T02:06:03.773Z,2.67
2022-08-05T02:06:38.278Z,2.50
2022-08-05T02:06:50.893Z,2.70
2022-08-05T02:07:03.545Z,2.53
2022-08-05T02:07:22.132Z,2.60
2022-08-05T02:07:36.232Z,2.67
2022-08-05T02:08:00.134Z,2.75
2022-08-05T02:08:13.878Z,2.58
2022-08-05T02:08:54.946Z,2.72
2022-08-05T02:09:10.908Z,2.80
2022-08-05T02:09:26.928Z,2.72
2022-08-05T02:09:40.280Z,2.60
2022-08-05T02:09:52.530Z,2.40
2022-08-05T02:10:07.838Z,2.45
2022-08-05T02:10:20.359Z,2.60
2022-08-05T02:10:49.082Z,2.85
2022-08-05T02:11:06.850Z,2.70
2022-08-05T02:11:24.119Z,2.55
2022-08-05T02:11:55.442Z,2.60
2022-08-05T02:12:25.274Z,2.75
2022-08-05T02:12:45.053Z,2.70
2022-08-05T02:13:17.129Z,2.60
2022-08-05T02:13:53.800Z,2.53
2022-08-05T02:14:13.107Z,2.70
2022-08-05T02:14:33.376Z,2.58
2022-08-05T02:14:59.091Z,2.67
2022-08-05T02:15:33.267Z,2.45
2022-08-05T02:15:53.884Z,2.53
2022-08-05T02:16:16.614Z,2.50
2022-08-05T02:16:44.393Z,2.58
2022-08-05T02:17:03.719Z,2.60
2022-08-05T02:18:27.916Z,2.80
2022-08-05T02:18:30.965Z,2.53
2022-08-05T02:18:47.958Z,2.63
2022-08-05T02:19:11.658Z,2.70
2022-08-05T02:19:27.367Z,2.85
2022-08-05T02:19:47.403Z,3.05
2022-08-05T02:20:03.636Z,2.53
2022-08-05T02:20:22.132Z,2.50
2022-08-05T02:20:53.560Z,2.70
2022-08-05T02:21:16.079Z,2.70
2022-08-05T02:21:43.544Z,2.65
2022-08-05T02:22:01.424Z,2.65
2022-08-05T02:22:26.552Z,2.80
2022-08-05T02:22:48.075Z,2.80
2022-08-05T02:23:05.580Z,2.53
2022-08-05T02:23:26.053Z,2.50
2022-08-05T02:23:42.438Z,2.65
2022-08-05T02:23:59.496Z,2.75
2022-08-05T02:24:18.441Z,2.60
2022-08-05T02:24:36.856Z,2.60
2022-08-05T02:24:53.869Z,2.70
2022-08-05T02:25:12.851Z,2.72
2022-08-05T02:25:33.236Z,2.58
2022-08-05T02:25:50.031Z,2.30
2022-08-05T02:26:06.341Z,2.47
2022-08-05T02:26:27.747Z,2.53
2022-08-05T02:26:53.985Z,2.53
2022-08-05T02:27:10.612Z,2.63
2022-08-05T02:27:30.019Z,2.67
2022-08-05T02:27:58.586Z,2.60
2022-08-05T02:28:14.536Z,2.47
2022-08-05T02:28:33.064Z,2.55
2022-08-05T02:28:49.920Z,2.70
2022-08-05T02:29:02.716Z,2.75
2022-08-05T02:29:26.091Z,2.80
2022-08-05T02:29:59.782Z,2.75
2022-08-05T02:30:13.168Z,2.70
2022-08-05T02:30:30.505Z,2.70
2022-08-05T02:30:54.250Z,2.63
2022-08-05T02:31:21.108Z,2.53
2022-08-05T02:31:35.672Z,2.55
2022-08-05T02:31:50.247Z,2.78
2022-08-05T02:32:04.851Z,2.80
2022-08-05T02:32:24.219Z,2.70
2022-08-05T02:32:43.151Z,2.90
2022-08-05T02:32:58.612Z,2.72
2022-08-05T02:33:15.045Z,2.50
2022-08-05T02:33:40.714Z,2.45
2022-08-05T02:33:58.226Z,2.60
2022-08-05T02:34:14.083Z,2.70
2022-08-05T02:34:29.931Z,2.78
2022-08-05T02:34:45.833Z,2.72
2022-08-05T02:35:14.156Z,2.60
2022-08-05T02:35:33.306Z,2.78
2022-08-05T02:35:57.621Z,2.50
2022-08-05T02:36:16.282Z,2.25
2022-08-05T02:36:31.850Z,2.40
2022-08-05T02:36:50.797Z,2.60
2022-08-05T02:37:05.179Z,2.63
2022-08-05T02:37:18.768Z,2.65
2022-08-05T02:37:34.794Z,2.55
2022-08-05T02:37:53.791Z,2.53
2022-08-05T02:38:09.206Z,3.08
2022-08-05T02:38:22.601Z,2.83
2022-08-05T02:38:42.899Z,2.67
2022-08-05T02:38:57.586Z,2.67
2022-08-05T02:39:10.873Z,2.75
2022-08-05T02:39:24.283Z,2.60
2022-08-05T02:39:41.300Z,2.60
2022-08-05T02:39:59.421Z,2.65
2022-08-05T02:40:12.890Z,2.80
2022-08-05T02:40:26.119Z,2.95
2022-08-05T02:40:43.458Z,3.00
2022-08-05T02:40:57.937Z,3.10
2022-08-05T02:41:17.054Z,3.00
2022-08-05T02:41:43.140Z,3.15
2022-08-05T02:42:06.787Z,3.13
2022-08-05T02:42:27.624Z,3.28
2022-08-05T02:42:44.726Z,3.10
2022-08-05T02:43:07.314Z,2.85
2022-08-05T02:43:22.064Z,2.80
2022-08-05T02:43:34.545Z,2.80
2022-08-05T02:44:12.374Z,2.85
2022-08-05T02:44:27.277Z,2.90
2022-08-05T02:44:40.128Z,3.15
2022-08-05T02:44:55.077Z,3.20
2022-08-05T02:45:09.456Z,2.95
2022-08-05T02:45:25.262Z,2.80
2022-08-05T02:45:52.519Z,2.80
2022-08-05T02:46:06.764Z,2.90
2022-08-05T02:46:27.731Z,2.90
2022-08-05T02:46:58.626Z,2.63
2022-08-05T02:47:14.841Z,3.10
2022-08-05T02:47:58.663Z,2.88
2022-08-05T02:48:11.419Z,2.92
2022-08-05T02:48:29.766Z,2.95
2022-08-05T02:48:42.245Z,2.90
2022-08-05T02:48:56.288Z,2.80
2022-08-05T02:49:11.065Z,2.75
2022-08-05T02:49:24.265Z,2.80
2022-08-05T02:49:42.281Z,2.97
2022-08-05T02:49:55.645Z,3.10
2022-08-05T02:50:08.811Z,2.90
2022-08-05T02:50:24.966Z,2.70
2022-08-05T02:50:37.999Z,2.70
2022-08-05T02:50:58.556Z,2.50
2022-08-05T02:51:13.084Z,2.60
2022-08-05T02:51:42.381Z,2.80
2022-08-05T02:52:02.646Z,2.85
2022-08-05T02:52:25.891Z,3.03
2022-08-05T02:52:45.646Z,3.35
2022-08-05T02:52:57.712Z,2.67
2022-08-05T02:53:11.804Z,2.90
2022-08-05T02:53:39.538Z,3.05
2022-08-05T02:53:54.777Z,2.80
2022-08-05T02:54:07.423Z,2.77
2022-08-05T02:54:36.040Z,2.70
2022-08-05T02:54:52.071Z,2.88
2022-08-05T02:55:08.585Z,2.72
2022-08-05T02:55:54.326Z,2.70
2022-08-05T02:56:00.027Z,2.80
2022-08-05T02:56:15.729Z,2.78
2022-08-05T02:56:31.264Z,2.70
2022-08-05T02:56:45.956Z,2.65
2022-08-05T02:56:59.842Z,2.80
2022-08-05T02:58:19.865Z,2.70
2022-08-05T02:58:20.022Z,2.60
2022-08-05T02:58:23.019Z,2.80
2022-08-05T02:58:43.925Z,2.67
2022-08-05T02:58:56.458Z,2.60
2022-08-05T02:59:13.652Z,2.60
2022-08-05T02:59:27.877Z,2.90
2022-08-05T02:59:48.107Z,2.90
2022-08-05T03:00:02.916Z,2.80
2022-08-05T03:00:15.007Z,2.88
2022-08-05T03:00:28.155Z,2.85
2022-08-05T03:00:41.052Z,2.80
2022-08-05T03:01:02.002Z,2.92
2022-08-05T03:01:19.688Z,2.95
2022-08-05T03:01:35.052Z,2.97
2022-08-05T03:01:51.881Z,3.00
2022-08-05T03:02:04.693Z,2.80
2022-08-05T03:02:20.484Z,2.78
2022-08-05T03:02:36.780Z,2.80
2022-08-05T03:02:49.505Z,2.72
2022-08-05T03:03:03.617Z,2.65
2022-08-05T03:03:23.524Z,2.90
2022-08-05T03:04:02.821Z,2.92
2022-08-05T03:04:15.791Z,2.90
2022-08-05T03:04:29.060Z,3.10
2022-08-05T03:04:43.665Z,3.00
2022-08-05T03:04:57.950Z,2.63
2022-08-05T03:05:13.640Z,2.70
2022-08-05T03:06:53.880Z,2.90
2022-08-05T03:06:54.729Z,2.83
2022-08-05T03:06:54.923Z,2.93
2022-08-05T03:07:03.970Z,2.80
2022-08-05T03:07:24.680Z,2.90
2022-08-05T03:08:06.910Z,2.88
2022-08-05T03:08:26.922Z,2.80
2022-08-05T03:08:43.139Z,3.05
2022-08-05T03:08:55.493Z,3.22
2022-08-05T03:09:12.131Z,3.10
2022-08-05T03:09:37.634Z,3.00
2022-08-05T03:09:51.962Z,2.90
2022-08-05T03:10:04.972Z,2.95
2022-08-05T03:10:21.968Z,2.92
2022-08-05T03:10:36.986Z,2.50
2022-08-05T03:11:01.066Z,2.58
2022-08-05T03:11:56.316Z,2.60
2022-08-05T03:11:58.444Z,2.80
2022-08-05T03:12:28.709Z,2.78
2022-08-05T03:12:41.249Z,2.78
2022-08-05T03:13:16.799Z,2.90
2022-08-05T03:13:51.195Z,2.70
2022-08-05T03:14:02.819Z,2.65
2022-08-05T03:14:15.403Z,2.80
2022-08-05T03:14:27.350Z,2.90
2022-08-05T03:14:46.166Z,2.90
2022-08-05T03:15:00.423Z,2.63
2022-08-05T03:15:12.608Z,2.65
2022-08-05T03:15:24.799Z,2.70
2022-08-05T03:15:36.882Z,2.83
2022-08-05T03:15:50.203Z,2.90
2022-08-05T03:16:03.950Z,3.15
2022-08-05T03:16:16.543Z,3.20
2022-08-05T03:16:31.795Z,3.05
2022-08-05T03:16:43.907Z,2.80
2022-08-05T03:16:55.887Z,2.67
2022-08-05T03:17:09.162Z,3.00
2022-08-05T03:17:21.632Z,3.10
2022-08-05T03:17:34.464Z,2.90
2022-08-05T03:17:55.926Z,3.30
2022-08-05T03:18:09.483Z,3.40
2022-08-05T03:18:24.621Z,2.97
2022-08-05T03:18:42.590Z,3.00
2022-08-05T03:18:59.599Z,3.10
2022-08-05T03:19:17.098Z,3.00
2022-08-05T03:19:45.730Z,3.00
2022-08-05T03:19:58.695Z,3.15
2022-08-05T03:20:11.232Z,3.15
2022-08-05T03:20:26.256Z,2.88
2022-08-05T03:20:38.642Z,2.90
2022-08-05T03:21:00.512Z,2.67
2022-08-05T03:21:12.798Z,2.60
2022-08-05T03:21:28.919Z,2.60
2022-08-05T03:21:48.921Z,2.83
2022-08-05T03:22:01.784Z,3.03
2022-08-05T03:22:19.051Z,3.10
2022-08-05T03:22:49.779Z,3.08
2022-08-05T03:23:04.999Z,3.00
2022-08-05T03:23:17.648Z,2.92
2022-08-05T03:23:29.917Z,3.00
2022-08-05T03:23:43.526Z,3.17
2022-08-05T03:23:58.109Z,3.13
2022-08-05T03:24:10.400Z,2.90
2022-08-05T03:24:30.052Z,2.60
2022-08-05T03:24:52.080Z,2.60
2022-08-05T03:25:32.044Z,2.83
2022-08-05T03:26:03.563Z,2.92
2022-08-05T03:26:30.551Z,2.95
2022-08-05T03:26:42.882Z,2.63
2022-08-05T03:27:01.626Z,2.67
2022-08-05T03:27:14.297Z,2.75
2022-08-05T03:27:39.435Z,2.90
2022-08-05T03:28:00.771Z,2.70
2022-08-05T03:28:14.123Z,2.60
2022-08-05T03:28:27.329Z,2.83
2022-08-05T03:28:39.386Z,3.03
2022-08-05T03:28:53.038Z,2.80
2022-08-05T03:29:07.271Z,2.70
2022-08-05T03:29:24.497Z,2.80
2022-08-05T03:30:08.292Z,2.70
2022-08-05T03:30:22.334Z,2.78
2022-08-05T03:30:46.585Z,2.95
2022-08-05T03:31:01.578Z,2.90
2022-08-05T03:31:25.858Z,2.80
2022-08-05T03:31:56.211Z,3.05
2022-08-05T03:32:10.256Z,2.80
2022-08-05T03:32:30.997Z,2.80
2022-08-05T03:32:43.795Z,2.92
2022-08-05T03:32:55.736Z,3.10
2022-08-05T03:33:08.002Z,2.97
2022-08-05T03:33:20.817Z,3.00
2022-08-05T03:33:50.849Z,3.10
2022-08-05T03:34:04.460Z,2.40
2022-08-05T03:34:16.670Z,2.40
2022-08-05T03:34:28.927Z,2.55
2022-08-05T03:34:41.894Z,2.78
2022-08-05T03:34:54.327Z,2.65
2022-08-05T03:35:09.014Z,2.63
2022-08-05T03:35:22.130Z,2.80
2022-08-05T03:35:41.111Z,2.88
2022-08-05T03:35:56.946Z,3.00
2022-08-05T03:36:11.906Z,2.90
2022-08-05T03:36:30.417Z,3.00
2022-08-05T03:36:42.736Z,3.15
2022-08-05T03:36:54.689Z,2.90
2022-08-05T03:37:07.292Z,2.67
2022-08-05T03:37:23.548Z,2.78
2022-08-05T03:37:44.759Z,2.85
2022-08-05T03:38:02.572Z,2.88
2022-08-05T03:38:16.064Z,2.90
2022-08-05T03:38:33.262Z,2.90
2022-08-05T03:38:52.502Z,2.70
2022-08-05T03:39:12.931Z,2.80
2022-08-05T03:39:27.157Z,3.17
2022-08-05T03:39:58.795Z,3.28
2022-08-05T03:40:13.041Z,3.08
2022-08-05T03:40:31.961Z,2.92
2022-08-05T03:40:47.186Z,2.90
2022-08-05T03:40:59.755Z,2.88
2022-08-05T03:41:16.983Z,2.70
2022-08-05T03:41:38.605Z,2.80
2022-08-05T03:41:57.925Z,2.55
2022-08-05T03:42:09.850Z,2.53
2022-08-05T03:42:21.820Z,2.67
2022-08-05T03:42:41.547Z,3.05
2022-08-05T03:43:58.363Z,2.97
2022-08-05T03:44:09.597Z,2.97
2022-08-05T03:44:11.096Z,3.00
2022-08-05T03:44:24.835Z,2.90
2022-08-05T03:44:41.057Z,2.90
2022-08-05T03:44:53.038Z,2.88
2022-08-05T03:45:21.097Z,2.90
2022-08-05T03:45:55.289Z,3.10
2022-08-05T03:46:08.103Z,3.08
2022-08-05T03:46:20.309Z,2.78
2022-08-05T03:46:32.417Z,2.80
2022-08-05T03:46:44.656Z,2.85
2022-08-05T03:46:58.269Z,3.10
2022-08-05T03:47:10.195Z,3.10
2022-08-05T03:47:25.914Z,2.90
2022-08-05T03:47:42.576Z,2.70
2022-08-05T03:47:56.940Z,2.78
2022-08-05T03:48:10.247Z,2.90
2022-08-05T03:48:22.995Z,3.00
2022-08-05T03:48:35.445Z,2.90
2022-08-05T03:48:47.651Z,3.03
2022-08-05T03:48:59.726Z,3.15
2022-08-05T03:49:14.977Z,3.22
2022-08-05T03:49:51.644Z,3.03
2022-08-05T03:49:58.896Z,3.15
2022-08-05T03:50:13.334Z,3.05
2022-08-05T03:50:33.643Z,2.67
2022-08-05T03:50:52.785Z,2.85
2022-08-05T03:52:38.147Z,3.00
2022-08-05T03:52:39.424Z,2.80
2022-08-05T03:55:34.092Z,2.70
2022-08-05T03:55:50.443Z,2.83
2022-08-05T03:55:53.009Z,2.92
2022-08-05T03:56:06.191Z,3.28
2022-08-05T03:56:10.804Z,2.80
2022-08-05T03:56:41.273Z,3.30
2022-08-05T03:56:54.066Z,2.80
2022-08-05T03:57:16.541Z,2.90
2022-08-05T03:57:41.855Z,3.17
2022-08-05T03:57:56.482Z,2.65
2022-08-05T03:58:12.616Z,2.70
2022-08-05T03:58:31.059Z,2.90
2022-08-05T03:58:45.857Z,3.35
2022-08-05T03:59:06.233Z,3.80
2022-08-05T03:59:24.643Z,3.20
2022-08-05T03:59:54.466Z,3.13
2022-08-05T04:00:09.958Z,2.85
2022-08-05T04:00:29.598Z,3.00
2022-08-05T04:00:46.476Z,3.42
2022-08-05T04:01:07.610Z,3.42
2022-08-05T04:01:22.065Z,3.20
2022-08-05T04:01:37.680Z,3.08
2022-08-05T04:01:51.665Z,3.13
2022-08-05T04:02:05.630Z,3.10
2022-08-05T04:02:38.905Z,3.10
2022-08-05T04:02:58.359Z,2.95
2022-08-05T04:03:26.606Z,3.17
2022-08-05T04:04:10.560Z,3.70
2022-08-05T04:04:16.939Z,3.20
2022-08-05T04:04:34.798Z,3.25
2022-08-05T04:04:47.552Z,3.60
2022-08-05T04:05:01.215Z,3.72
2022-08-05T04:05:14.770Z,3.67
2022-08-05T04:05:34.245Z,3.78
2022-08-05T04:05:47.685Z,3.10
2022-08-05T04:05:59.793Z,2.90
2022-08-05T04:06:12.433Z,2.90
2022-08-05T04:06:25.052Z,3.15
2022-08-05T04:06:38.344Z,3.38
2022-08-05T04:07:00.492Z,3.30
2022-08-05T04:07:13.249Z,3.17
2022-08-05T04:07:26.393Z,3.00
2022-08-05T04:07:57.313Z,3.13
2022-08-05T04:08:14.855Z,3.30
2022-08-05T04:08:45.094Z,2.97
2022-08-05T04:09:01.952Z,3.45
2022-08-05T04:09:15.480Z,3.60
2022-08-05T04:09:36.547Z,3.42
2022-08-05T04:09:53.187Z,3.50
2022-08-05T04:10:06.655Z,3.60
2022-08-05T04:10:18.991Z,3.47
2022-08-05T04:10:37.973Z,3.17
2022-08-05T04:10:50.645Z,3.40
2022-08-05T04:11:03.984Z,3.40
2022-08-05T04:11:16.787Z,3.50
2022-08-05T04:11:47.293Z,3.60
2022-08-05T04:12:03.133Z,3.70
2022-08-05T04:12:49.505Z,3.60
2022-08-05T04:13:04.265Z,3.42
2022-08-05T04:13:18.499Z,3.40
2022-08-05T04:13:49.727Z,3.47
2022-08-05T04:14:04.759Z,3.20
2022-08-05T04:14:17.910Z,3.38
2022-08-05T04:14:31.282Z,3.40
2022-08-05T04:14:43.703Z,3.30
2022-08-05T04:14:57.786Z,3.25
2022-08-05T04:15:10.947Z,3.53
2022-08-05T04:15:32.826Z,3.80
2022-08-05T04:16:03.004Z,3.67